createdAt,value
2022-08-15T00:00:34.684Z,100324.00
2022-08-15T00:03:10.035Z,100332.00
2022-08-15T00:05:39.076Z,100334.00
2022-08-15T00:08:48.743Z,100326.00
2022-08-15T00:11:20.669Z,100317.00
2022-08-15T00:13:59.555Z,100320.00
2022-08-15T00:16:34.112Z,100317.00
2022-08-15T00:19:02.960Z,100311.00
2022-08-15T00:21:32.876Z,100311.00
2022-08-15T00:23:59.851Z,100310.00
2022-08-15T00:26:54.224Z,100298.00
2022-08-15T00:29:15.134Z,100299.00
2022-08-15T00:31:42.461Z,100292.00
2022-08-15T00:34:39.318Z,100291.00
2022-08-15T00:37:00.288Z,100296.00
2022-08-15T00:39:33.352Z,100297.00
2022-08-15T00:42:05.006Z,100291.00
2022-08-15T00:45:00.675Z,100280.00
2022-08-15T00:47:38.859Z,100286.00
2022-08-15T00:50:33.119Z,100282.00
2022-08-15T00:52:58.313Z,100283.00
2022-08-15T00:55:28.245Z,100277.00
2022-08-15T00:58:01.284Z,100280.00
2022-08-15T01:00:45.153Z,100269.00
2022-08-15T01:03:17.580Z,100254.00
2022-08-15T01:05:51.726Z,100249.00
2022-08-15T01:08:30.917Z,100263.00
2022-08-15T01:11:08.505Z,100258.00
2022-08-15T01:14:04.143Z,100244.00
2022-08-15T01:16:33.058Z,100245.00
2022-08-15T01:19:10.697Z,100241.00
2022-08-15T01:22:14.636Z,100252.00
2022-08-15T01:25:26.194Z,100241.00
2022-08-15T01:28:09.623Z,100244.00
2022-08-15T01:31:02.612Z,100244.00
2022-08-15T01:33:33.462Z,100249.00
2022-08-15T01:36:01.582Z,100242.00
2022-08-15T01:39:05.060Z,100253.00
2022-08-15T01:41:54.942Z,100244.00
2022-08-15T01:44:49.689Z,100246.00
2022-08-15T01:48:02.077Z,100241.00
2022-08-15T01:50:39.019Z,100252.00
2022-08-15T01:53:25.799Z,100243.00
2022-08-15T01:56:35.127Z,100252.00
2022-08-15T01:58:57.418Z,100237.00
2022-08-15T02:01:54.270Z,100230.00
2022-08-15T02:04:40.458Z,100233.00
2022-08-15T02:07:32.501Z,100235.00
2022-08-15T02:10:21.517Z,100225.00
2022-08-15T02:13:04.481Z,100209.00
2022-08-15T02:15:35.566Z,100204.00
2022-08-15T02:18:04.829Z,100206.00
2022-08-15T02:20:39.179Z,100199.00
2022-08-15T02:23:07.579Z,100198.00
2022-08-15T02:25:44.508Z,100196.00
2022-08-15T02:28:34.111Z,100203.00
2022-08-15T02:30:59.070Z,100200.00
2022-08-15T02:33:28.818Z,100203.00
2022-08-15T02:35:55.704Z,100210.00
2022-08-15T02:38:22.578Z,100201.00
2022-08-15T02:40:51.214Z,100207.00
2022-08-15T02:43:20.581Z,100204.00
2022-08-15T02:45:57.427Z,100198.00
2022-08-15T02:48:37.545Z,100193.00
2022-08-15T02:51:10.204Z,100191.00
2022-08-15T02:53:47.827Z,100197.00
2022-08-15T02:56:17.486Z,100196.00
2022-08-15T02:58:45.704Z,100199.00
2022-08-15T03:01:14.972Z,100193.00
2022-08-15T03:03:45.332Z,100188.00
2022-08-15T03:06:16.496Z,100182.00
2022-08-15T03:08:44.937Z,100189.00
2022-08-15T03:11:12.584Z,100191.00
2022-08-15T03:13:41.544Z,100191.00
2022-08-15T03:16:15.426Z,100194.00
2022-08-15T03:18:51.874Z,100188.00
2022-08-15T03:21:22.244Z,100192.00
2022-08-15T03:23:52.621Z,100192.00
2022-08-15T03:26:25.198Z,100190.00
2022-08-15T03:29:01.559Z,100194.00
2022-08-15T03:31:45.039Z,100193.00
2022-08-15T03:34:16.003Z,100197.00
2022-08-15T03:36:51.932Z,100189.00
2022-08-15T03:39:21.377Z,100188.00
2022-08-15T03:41:54.245Z,100187.00
2022-08-15T03:44:27.195Z,100194.00
2022-08-15T03:46:56.113Z,100196.00
2022-08-15T03:50:28.178Z,100187.00
2022-08-15T03:52:10.531Z,100192.00
2022-08-15T03:54:38.542Z,100186.00
2022-08-15T03:57:06.189Z,100182.00
2022-08-15T03:59:39.263Z,100191.00
2022-08-15T04:02:11.712Z,100184.00
2022-08-15T04:04:59.669Z,100176.00
2022-08-15T04:07:40.322Z,100176.00
2022-08-15T04:10:38.288Z,100171.00
2022-08-15T04:13:08.604Z,100175.00
2022-08-15T04:15:36.394Z,100178.00
2022-08-15T04:18:41.511Z,100164.00
2022-08-15T04:21:03.486Z,100168.00
2022-08-15T04:23:32.998Z,100178.00
2022-08-15T04:26:00.300Z,100186.00
2022-08-15T04:28:53.898Z,100173.00
2022-08-15T04:31:22.124Z,100189.00
2022-08-15T04:34:22.059Z,100185.00
2022-08-15T04:36:37.803Z,100172.00
2022-08-15T04:39:06.293Z,100182.00
2022-08-15T04:41:37.173Z,100180.00
2022-08-15T04:44:05.849Z,100175.00
2022-08-15T04:46:33.064Z,100170.00
2022-08-15T04:49:00.090Z,100171.00
2022-08-15T04:51:34.663Z,100173.00
2022-08-15T04:54:02.684Z,100168.00
2022-08-15T04:56:47.935Z,100167.00
2022-08-15T04:59:33.941Z,100169.00
2022-08-15T05:02:55.984Z,100166.00
2022-08-15T05:04:51.641Z,100165.00
2022-08-15T05:07:18.974Z,100174.00
2022-08-15T05:09:59.872Z,100167.00
2022-08-15T05:12:33.195Z,100167.00
2022-08-15T05:15:02.686Z,100168.00
2022-08-15T05:17:56.722Z,100175.00
2022-08-15T05:20:18.827Z,100168.00
2022-08-15T05:23:15.923Z,100161.00
2022-08-15T05:25:46.392Z,100173.00
2022-08-15T05:28:31.468Z,100176.00
2022-08-15T05:31:07.200Z,100158.00
2022-08-15T05:33:55.933Z,100157.00
2022-08-15T05:36:27.838Z,100161.00
2022-08-15T05:39:00.545Z,100161.00
2022-08-15T05:41:33.725Z,100159.00
2022-08-15T05:44:03.825Z,100165.00
2022-08-15T05:47:15.721Z,100156.00
2022-08-15T05:50:04.598Z,100160.00
2022-08-15T05:52:56.498Z,100159.00
2022-08-15T05:55:49.354Z,100158.00
2022-08-15T05:58:53.330Z,100153.00
2022-08-15T06:01:32.787Z,100161.00
2022-08-15T06:04:30.555Z,100152.00
2022-08-15T06:07:00.196Z,100145.00
2022-08-15T06:09:35.053Z,100157.00
2022-08-15T06:12:24.906Z,100147.00
2022-08-15T06:14:54.478Z,100156.00
2022-08-15T06:17:25.309Z,100148.00
2022-08-15T06:19:53.472Z,100145.00
2022-08-15T06:22:28.853Z,100141.00
2022-08-15T06:25:24.591Z,100150.00
2022-08-15T06:28:00.995Z,100149.00
2022-08-15T06:30:38.830Z,100139.00
2022-08-15T06:33:23.685Z,100143.00
2022-08-15T06:36:30.627Z,100142.00
2022-08-15T06:39:07.059Z,100144.00
2022-08-15T06:41:50.039Z,100134.00
2022-08-15T06:44:21.460Z,100137.00
2022-08-15T06:46:57.023Z,100136.00
2022-08-15T06:49:24.546Z,100135.00
2022-08-15T06:51:53.552Z,100142.00
2022-08-15T06:54:34.985Z,100132.00
2022-08-15T06:57:07.186Z,100133.00
2022-08-15T07:00:34.083Z,100138.00
2022-08-15T07:03:12.420Z,100129.00
2022-08-15T07:05:55.578Z,100133.00
2022-08-15T07:08:29.021Z,100127.00
2022-08-15T07:11:09.255Z,100129.00
2022-08-15T07:13:59.437Z,100119.00
2022-08-15T07:16:56.750Z,100123.00
2022-08-15T07:19:23.809Z,100129.00
2022-08-15T07:21:53.175Z,100132.00
2022-08-15T07:24:35.685Z,100145.00
2022-08-15T07:27:03.366Z,100142.00
2022-08-15T07:29:55.734Z,100147.00
2022-08-15T07:32:32.950Z,100152.00
2022-08-15T07:35:12.848Z,100160.00
2022-08-15T07:37:43.085Z,100160.00
2022-08-15T07:40:28.790Z,100174.00
2022-08-15T07:43:10.811Z,100170.00
2022-08-15T07:45:41.376Z,100174.00
2022-08-15T07:48:26.448Z,100187.00
2022-08-15T07:51:31.026Z,100190.00
2022-08-15T07:54:34.102Z,100202.00
2022-08-15T07:57:05.025Z,100182.00
2022-08-15T07:59:53.700Z,100170.00
2022-08-15T08:02:29.784Z,100187.00
2022-08-15T08:05:05.623Z,100179.00
2022-08-15T08:07:34.016Z,100182.00
2022-08-15T08:10:29.404Z,100189.00
2022-08-15T08:13:24.943Z,100190.00
2022-08-15T08:16:23.002Z,100185.00
2022-08-15T08:19:24.427Z,100187.00
2022-08-15T08:22:43.222Z,100204.00
2022-08-15T08:25:41.895Z,100211.00
2022-08-15T08:28:18.151Z,100204.00
2022-08-15T08:31:14.883Z,100215.00
2022-08-15T08:34:32.206Z,100199.00
2022-08-15T08:37:26.865Z,100199.00
2022-08-15T08:40:45.458Z,100214.00
2022-08-15T08:43:34.032Z,100223.00
2022-08-15T08:46:29.265Z,100220.00
2022-08-15T08:49:21.581Z,100220.00
2022-08-15T08:52:30.252Z,100222.00
2022-08-15T08:55:06.140Z,100206.00
2022-08-15T08:57:52.311Z,100230.00
2022-08-15T09:00:29.361Z,100246.00
2022-08-15T09:03:22.182Z,100228.00
2022-08-15T09:05:52.730Z,100243.00
2022-08-15T09:08:41.889Z,100257.00
2022-08-15T09:11:34.228Z,100236.00
2022-08-15T09:14:32.292Z,100249.00
2022-08-15T09:20:18.651Z,100245.00
2022-08-15T09:22:49.426Z,100237.00
2022-08-15T09:25:24.704Z,100251.00
2022-08-15T09:28:29.842Z,100231.00
2022-08-15T09:31:06.894Z,100228.00
2022-08-15T09:34:12.500Z,100220.00
2022-08-15T09:36:48.331Z,100219.00
2022-08-15T09:39:37.894Z,100220.00
2022-08-15T09:42:45.996Z,100246.00
2022-08-15T09:45:50.961Z,100240.00
2022-08-15T09:48:57.009Z,100210.00
2022-08-15T09:51:33.342Z,100241.00
2022-08-15T09:54:29.156Z,100225.00
2022-08-15T09:57:32.100Z,100241.00
2022-08-15T10:00:02.961Z,100240.00
2022-08-15T10:02:38.079Z,100229.00
2022-08-15T10:05:23.242Z,100211.00
2022-08-15T10:07:57.652Z,100208.00
2022-08-15T10:10:33.904Z,100226.00
2022-08-15T10:13:22.616Z,100219.00
2022-08-15T10:15:51.649Z,100223.00
2022-08-15T10:18:47.697Z,100238.00
2022-08-15T10:21:21.331Z,100210.00
2022-08-15T10:23:58.839Z,100219.00
2022-08-15T10:26:33.247Z,100222.00
2022-08-15T10:29:15.275Z,100222.00
2022-08-15T10:32:34.113Z,100232.00
2022-08-15T10:35:03.365Z,100226.00
2022-08-15T10:37:44.336Z,100236.00
2022-08-15T10:40:47.651Z,100244.00
2022-08-15T10:43:54.489Z,100228.00
2022-08-15T10:46:28.197Z,100203.00
2022-08-15T10:49:06.102Z,100240.00
2022-08-15T10:51:45.491Z,100226.00
2022-08-15T10:54:36.486Z,100231.00
2022-08-15T10:57:10.015Z,100223.00
2022-08-15T10:59:53.815Z,100231.00
2022-08-15T11:02:44.771Z,100239.00
2022-08-15T11:05:31.727Z,100243.00
2022-08-15T11:07:58.854Z,100243.00
2022-08-15T11:10:29.020Z,100254.00
2022-08-15T11:13:05.573Z,100247.00
2022-08-15T11:15:56.138Z,100235.00
2022-08-15T11:18:34.490Z,100251.00
2022-08-15T11:21:27.316Z,100271.00
2022-08-15T11:23:57.678Z,100252.00
2022-08-15T11:26:31.838Z,100241.00
2022-08-15T11:29:16.734Z,100234.00
2022-08-15T11:32:00.501Z,100234.00
2022-08-15T11:34:42.255Z,100223.00
2022-08-15T11:37:23.782Z,100241.00
2022-08-15T11:40:08.696Z,100237.00
2022-08-15T11:42:58.304Z,100229.00
2022-08-15T11:45:50.661Z,100213.00
2022-08-15T11:48:22.128Z,100212.00
2022-08-15T11:51:09.569Z,100213.00
2022-08-15T11:54:34.655Z,100219.00
2022-08-15T11:57:17.392Z,100239.00
2022-08-15T12:00:25.210Z,100211.00
2022-08-15T12:03:03.450Z,100203.00
2022-08-15T12:05:40.979Z,100202.00
2022-08-15T12:08:27.785Z,100204.00
2022-08-15T12:11:16.584Z,100210.00
2022-08-15T12:13:55.779Z,100217.00
2022-08-15T12:16:30.922Z,100224.00
2022-08-15T12:19:25.127Z,100225.00
2022-08-15T12:21:57.742Z,100242.00
2022-08-15T12:24:47.992Z,100226.00
2022-08-15T12:27:17.970Z,100216.00
2022-08-15T12:29:45.157Z,100204.00
2022-08-15T12:32:35.307Z,100200.00
2022-08-15T12:35:00.906Z,100188.00
2022-08-15T12:37:41.638Z,100199.00
2022-08-15T12:41:43.536Z,100197.00
2022-08-15T12:43:50.041Z,100208.00
2022-08-15T12:46:19.993Z,100207.00
2022-08-15T12:48:57.697Z,100180.00
2022-08-15T12:51:29.023Z,100180.00
2022-08-15T12:53:58.047Z,100182.00
2022-08-15T12:56:44.503Z,100182.00
2022-08-15T12:59:14.610Z,100178.00
2022-08-15T13:01:56.903Z,100172.00
2022-08-15T13:04:54.533Z,100155.00
2022-08-15T13:07:14.357Z,100173.00
2022-08-15T13:09:42.453Z,100158.00
2022-08-15T13:12:17.787Z,100173.00
2022-08-15T13:14:48.077Z,100171.00
2022-08-15T13:17:45.866Z,100182.00
2022-08-15T13:20:22.558Z,100184.00
2022-08-15T13:23:22.716Z,100179.00
2022-08-15T13:25:51.539Z,100159.00
2022-08-15T13:28:23.406Z,100146.00
2022-08-15T13:31:06.226Z,100146.00
2022-08-15T13:33:34.690Z,100143.00
2022-08-15T13:36:28.890Z,100127.00
2022-08-15T13:38:55.508Z,100124.00
2022-08-15T13:41:47.654Z,100135.00
2022-08-15T13:44:30.859Z,100134.00
2022-08-15T13:47:09.639Z,100118.00
2022-08-15T13:49:40.577Z,100133.00
2022-08-15T13:52:46.092Z,100141.00
2022-08-15T13:55:00.040Z,100147.00
2022-08-15T13:57:29.034Z,100140.00
2022-08-15T13:59:57.843Z,100143.00
2022-08-15T14:02:36.537Z,100150.00
2022-08-15T14:05:09.082Z,100135.00
2022-08-15T14:07:52.732Z,100135.00
2022-08-15T14:10:59.337Z,100115.00
2022-08-15T14:13:17.763Z,100121.00
2022-08-15T14:16:08.610Z,100118.00
2022-08-15T14:18:51.175Z,100090.00
2022-08-15T14:21:26.109Z,100073.00
2022-08-15T14:23:54.115Z,100063.00
2022-08-15T14:27:07.594Z,100063.00
2022-08-15T14:29:48.096Z,100048.00
2022-08-15T14:32:47.773Z,100055.00
2022-08-15T14:37:56.953Z,100051.00
2022-08-15T14:40:33.276Z,100037.00
2022-08-15T14:43:03.129Z,100050.00
2022-08-15T14:46:32.543Z,100045.00
2022-08-15T14:48:48.081Z,100053.00
2022-08-15T14:52:11.648Z,100057.00
2022-08-15T14:54:40.766Z,100055.00
2022-08-15T14:57:09.117Z,100049.00
2022-08-15T14:59:56.883Z,100047.00
2022-08-15T15:02:28.383Z,100038.00
2022-08-15T15:04:57.979Z,100019.00
2022-08-15T15:07:54.777Z,100022.00
2022-08-15T15:10:25.436Z,100012.00
2022-08-15T15:13:15.243Z,99993.00
2022-08-15T15:16:13.862Z,100006.00
2022-08-15T15:18:46.230Z,100013.00
2022-08-15T15:21:26.547Z,100022.00
2022-08-15T15:23:54.760Z,100017.00
2022-08-15T15:26:37.696Z,100026.00
2022-08-15T15:29:10.783Z,100024.00
2022-08-15T15:31:41.231Z,100040.00
2022-08-15T15:34:15.101Z,100015.00
2022-08-15T15:36:45.326Z,100041.00
2022-08-15T15:39:17.138Z,100049.00
2022-08-15T15:41:48.229Z,100047.00
2022-08-15T15:44:19.402Z,100051.00
2022-08-15T15:46:51.196Z,100054.00
2022-08-15T15:49:30.799Z,100051.00
2022-08-15T15:52:02.956Z,100054.00
2022-08-15T15:54:34.780Z,100051.00
2022-08-15T15:57:03.415Z,100057.00
2022-08-15T15:59:59.247Z,100039.00
2022-08-15T16:02:44.076Z,100065.00
2022-08-15T16:05:10.920Z,100060.00
2022-08-15T16:07:55.190Z,100055.00
2022-08-15T16:10:33.434Z,100056.00
2022-08-15T16:13:06.364Z,100051.00
2022-08-15T16:16:05.891Z,100059.00
2022-08-15T16:18:40.058Z,100050.00
2022-08-15T16:22:00.732Z,100064.00
2022-08-15T16:25:06.719Z,100045.00
2022-08-15T16:27:49.883Z,100042.00
2022-08-15T16:30:53.429Z,100054.00
2022-08-15T16:33:27.848Z,100040.00
2022-08-15T16:36:37.471Z,100033.00
2022-08-15T16:39:47.124Z,100031.00
2022-08-15T16:42:48.583Z,100019.00
2022-08-15T16:45:36.068Z,100012.00
2022-08-15T16:48:25.749Z,100005.00
2022-08-15T16:51:05.480Z,100016.00
2022-08-15T16:53:57.643Z,100011.00
2022-08-15T16:56:53.139Z,100020.00
2022-08-15T16:59:33.184Z,100035.00
2022-08-15T17:03:03.496Z,100025.00
2022-08-15T17:05:26.339Z,100016.00
2022-08-15T17:08:15.502Z,100028.00
2022-08-15T17:10:56.820Z,100020.00
2022-08-15T17:13:33.495Z,100021.00
2022-08-15T17:16:27.168Z,100033.00
2022-08-15T17:19:26.218Z,100025.00
2022-08-15T17:22:06.039Z,100014.00
2022-08-15T17:24:55.058Z,100017.00
2022-08-15T17:27:36.535Z,99999.00
2022-08-15T17:30:30.110Z,100020.00
2022-08-15T17:33:19.580Z,100025.00
2022-08-15T17:36:03.888Z,100010.00
2022-08-15T17:38:34.284Z,100016.00
2022-08-15T17:41:08.715Z,100020.00
2022-08-15T17:43:59.831Z,100015.00
2022-08-15T17:46:34.802Z,100015.00
2022-08-15T17:49:07.732Z,100013.00
2022-08-15T17:51:41.215Z,100018.00
2022-08-15T17:54:52.678Z,100013.00
2022-08-15T17:57:45.434Z,100018.00
2022-08-15T18:00:31.631Z,100017.00
2022-08-15T18:03:03.617Z,100016.00
2022-08-15T18:05:35.062Z,100026.00
2022-08-15T18:08:03.928Z,100026.00
2022-08-15T18:10:53.027Z,100033.00
2022-08-15T18:13:24.576Z,100029.00
2022-08-15T18:16:03.087Z,100012.00
2022-08-15T18:18:33.110Z,100018.00
2022-08-15T18:21:32.866Z,100013.00
2022-08-15T18:24:39.067Z,100016.00
2022-08-15T18:26:57.583Z,100008.00
2022-08-15T18:29:26.934Z,100019.00
2022-08-15T18:32:07.052Z,100021.00
2022-08-15T18:34:54.143Z,100019.00
2022-08-15T18:37:49.942Z,100029.00
2022-08-15T18:40:43.868Z,100024.00
2022-08-15T18:43:13.197Z,100030.00
2022-08-15T18:45:50.564Z,100029.00
2022-08-15T18:48:34.280Z,100021.00
2022-08-15T18:51:16.375Z,100019.00
2022-08-15T18:54:47.057Z,100027.00
2022-08-15T18:57:25.208Z,100038.00
2022-08-15T19:00:07.046Z,100026.00
2022-08-15T19:02:41.718Z,100030.00
2022-08-15T19:05:22.345Z,100033.00
2022-08-15T19:08:01.609Z,100042.00
2022-08-15T19:10:40.073Z,100035.00
2022-08-15T19:16:29.983Z,100031.00
2022-08-15T19:19:37.130Z,100025.00
2022-08-15T19:22:07.366Z,100036.00
2022-08-15T19:24:26.716Z,100041.00
2022-08-15T19:24:37.427Z,100029.00
2022-08-15T19:27:17.430Z,100032.00
2022-08-15T19:30:19.330Z,100046.00
2022-08-15T19:33:09.056Z,100043.00
2022-08-15T19:35:50.730Z,100046.00
2022-08-15T19:38:50.793Z,100060.00
2022-08-15T19:41:27.552Z,100067.00
2022-08-15T19:44:20.974Z,100063.00
2022-08-15T19:47:01.038Z,100077.00
2022-08-15T19:50:05.947Z,100069.00
2022-08-15T19:52:44.919Z,100075.00
2022-08-15T19:55:41.382Z,100065.00
2022-08-15T19:58:37.945Z,100061.00
2022-08-15T20:01:18.991Z,100066.00
2022-08-15T20:04:45.020Z,100069.00
2022-08-15T20:07:56.565Z,100053.00
2022-08-15T20:10:26.452Z,100052.00
2022-08-15T20:12:56.425Z,100052.00
2022-08-15T20:15:45.831Z,100039.00
2022-08-15T20:18:29.356Z,100045.00
2022-08-15T20:21:22.204Z,100043.00
2022-08-15T20:24:43.805Z,100040.00
2022-08-15T20:27:17.834Z,100047.00
2022-08-15T20:29:53.392Z,100053.00
2022-08-15T20:32:36.348Z,100051.00
2022-08-15T20:35:25.731Z,100055.00
2022-08-15T20:38:00.144Z,100054.00
2022-08-15T20:40:42.799Z,100040.00
2022-08-15T20:43:33.304Z,100046.00
2022-08-15T20:46:15.797Z,100048.00
2022-08-15T20:48:57.653Z,100040.00
2022-08-15T20:52:01.208Z,100043.00
2022-08-15T20:54:48.381Z,100056.00
2022-08-15T20:57:22.843Z,100053.00
2022-08-15T20:59:56.168Z,100055.00
2022-08-15T21:02:29.806Z,100058.00
2022-08-15T21:05:18.160Z,100051.00
2022-08-15T21:08:39.249Z,100061.00
2022-08-15T21:11:06.343Z,100061.00
2022-08-15T21:15:09.786Z,100065.00
2022-08-15T21:17:41.945Z,100070.00
2022-08-15T21:20:33.347Z,100076.00
2022-08-15T21:23:32.376Z,100080.00
2022-08-15T21:26:01.110Z,100082.00
2022-08-15T21:28:42.149Z,100077.00
2022-08-15T21:31:34.488Z,100077.00
2022-08-15T21:34:02.341Z,100079.00
2022-08-15T21:36:35.510Z,100078.00
2022-08-15T21:39:12.236Z,100066.00
2022-08-15T21:41:56.579Z,100080.00
2022-08-15T21:44:43.484Z,100089.00
2022-08-15T21:47:33.259Z,100080.00
2022-08-15T21:50:30.620Z,100091.00
2022-08-15T21:53:23.851Z,100081.00
2022-08-15T21:55:51.774Z,100085.00
2022-08-15T21:58:34.308Z,100077.00
2022-08-15T22:01:30.464Z,100081.00
2022-08-15T22:04:14.597Z,100087.00
2022-08-15T22:06:41.593Z,100086.00
2022-08-15T22:09:08.940Z,100085.00
2022-08-15T22:11:43.376Z,100088.00
2022-08-15T22:14:28.998Z,100075.00
2022-08-15T22:17:01.688Z,100070.00
2022-08-15T22:19:29.329Z,100075.00
2022-08-15T22:22:09.111Z,100078.00
2022-08-15T22:24:50.654Z,100081.00
2022-08-15T22:27:19.662Z,100088.00
2022-08-15T22:29:48.970Z,100088.00
2022-08-15T22:32:32.529Z,100077.00
2022-08-15T22:35:08.511Z,100075.00
2022-08-15T22:37:44.059Z,100073.00
2022-08-15T22:40:17.005Z,100064.00
2022-08-15T22:42:52.209Z,100066.00
2022-08-15T22:45:35.749Z,100060.00
2022-08-15T22:48:19.202Z,100055.00
2022-08-15T22:50:58.338Z,100055.00
2022-08-15T22:53:32.230Z,100055.00
2022-08-15T22:56:45.869Z,100045.00
2022-08-15T22:58:51.229Z,100047.00
2022-08-15T23:01:23.843Z,100035.00
2022-08-15T23:03:51.530Z,100034.00
2022-08-15T23:06:34.125Z,100029.00
2022-08-15T23:09:06.626Z,100033.00
2022-08-15T23:11:47.746Z,100026.00
2022-08-15T23:14:28.898Z,100024.00
2022-08-15T23:17:08.471Z,100026.00
2022-08-15T23:19:57.626Z,100023.00
2022-08-15T23:22:32.902Z,100019.00
2022-08-15T23:25:00.999Z,100027.00
2022-08-15T23:27:31.675Z,100025.00
2022-08-15T23:30:44.296Z,100036.00
2022-08-15T23:32:57.691Z,100033.00
2022-08-15T23:35:30.727Z,100033.00
2022-08-15T23:37:59.479Z,100033.00
2022-08-15T23:40:50.101Z,100047.00
2022-08-15T23:43:18.202Z,100031.00
2022-08-15T23:45:45.922Z,100034.00
2022-08-15T23:48:28.470Z,100037.00
2022-08-15T23:50:59.145Z,100048.00
2022-08-15T23:53:31.665Z,100045.00
2022-08-15T23:56:32.748Z,100050.00
2022-08-15T23:58:53.520Z,100034.00
